KCHK

Chickasha Municipal Airport

Chickasha, Oklahoma, USA
METAR KCHK 221415Z AUTO 12005KT 10SM CLR 08/06 A3016 RMK AO2 T00840064
Observed Flight Rules
Oct-22 @ 14:15 UTC (5 minutes ago) Visual Flight Rules
Wind Visibility Clouds
120° at 5 knots 10 miles
  • Clear skies
Temperatures Readings
Current 8°C / 46°F
Dewpoint 6°C / 43°F
Humidity 87%
Altimeter 30.16" Hg
Pressure 1021 hPa
Elevation 351
METAR KCHK 221415Z AUTO 12005KT 10SM CLR 08/06 A3016 RMK AO2 T00840064
Observed Flight Rules
Oct-22 @ 14:15 UTC
(5 minutes ago)
VFR
Wind Visibility
120° at 5 knots 10 miles
Clouds
  • Clear skies
Temperature Dewpoint
8°C / 46°F 6°C / 43°F
Humidity Altimeter Pressure
87% 30.16" Hg 1021 hPa